sensor_id;sensor_type;location;lat;lon;timestamp;P1;durP1;ratioP1;P2;durP2;ratioP2
19032;SDS011;9649;51.042;13.804;2023-11-21T00:18:14;2.77;;;1.60;;
19032;SDS011;9649;51.042;13.804;2023-11-21T00:30:07;2.70;;;1.43;;
19032;SDS011;9649;51.042;13.804;2023-11-21T00:36:07;5.10;;;1.40;;
19032;SDS011;9649;51.042;13.804;2023-11-21T01:01:21;4.80;;;1.57;;
19032;SDS011;9649;51.042;13.804;2023-11-21T01:07:15;1.80;;;1.33;;
19032;SDS011;9649;51.042;13.804;2023-11-21T01:13:07;4.33;;;1.30;;
19032;SDS011;9649;51.042;13.804;2023-11-21T01:18:47;2.77;;;1.40;;
19032;SDS011;9649;51.042;13.804;2023-11-21T01:37:02;2.77;;;1.60;;
19032;SDS011;9649;51.042;13.804;2023-11-21T01:55:23;3.40;;;1.40;;
19032;SDS011;9649;51.042;13.804;2023-11-21T02:01:19;3.93;;;1.60;;
19032;SDS011;9649;51.042;13.804;2023-11-21T02:57:21;4.60;;;1.90;;
19032;SDS011;9649;51.042;13.804;2023-11-21T03:15:57;4.50;;;2.00;;
19032;SDS011;9649;51.042;13.804;2023-11-21T03:22:07;6.90;;;2.73;;
19032;SDS011;9649;51.042;13.804;2023-11-21T03:28:03;3.50;;;1.93;;
19032;SDS011;9649;51.042;13.804;2023-11-21T03:46:21;6.10;;;2.00;;
19032;SDS011;9649;51.042;13.804;2023-11-21T03:52:16;3.93;;;1.60;;
19032;SDS011;9649;51.042;13.804;2023-11-21T04:03:52;8.13;;;2.00;;
19032;SDS011;9649;51.042;13.804;2023-11-21T04:09:34;4.67;;;2.00;;
19032;SDS011;9649;51.042;13.804;2023-11-21T04:21:27;3.13;;;1.77;;
19032;SDS011;9649;51.042;13.804;2023-11-21T04:27:24;7.90;;;2.30;;
19032;SDS011;9649;51.042;13.804;2023-11-21T04:33:25;5.47;;;2.00;;
19032;SDS011;9649;51.042;13.804;2023-11-21T04:52:02;9.80;;;4.93;;
19032;SDS011;9649;51.042;13.804;2023-11-21T04:57:40;6.00;;;2.37;;
19032;SDS011;9649;51.042;13.804;2023-11-21T05:15:00;5.20;;;2.90;;
19032;SDS011;9649;51.042;13.804;2023-11-21T05:20:34;5.03;;;2.43;;
19032;SDS011;9649;51.042;13.804;2023-11-21T05:25:38;4.87;;;2.10;;
19032;SDS011;9649;51.042;13.804;2023-11-21T05:30:42;5.60;;;2.30;;
19032;SDS011;9649;51.042;13.804;2023-11-21T05:35:45;5.63;;;2.43;;
19032;SDS011;9649;51.042;13.804;2023-11-21T05:40:51;6.77;;;2.60;;
19032;SDS011;9649;51.042;13.804;2023-11-21T05:45:54;5.60;;;2.10;;
19032;SDS011;9649;51.042;13.804;2023-11-21T05:51:02;2.70;;;1.90;;
19032;SDS011;9649;51.042;13.804;2023-11-21T05:56:08;4.77;;;2.30;;
19032;SDS011;9649;51.042;13.804;2023-11-21T06:01:11;6.03;;;2.43;;
19032;SDS011;9649;51.042;13.804;2023-11-21T06:06:15;7.03;;;2.37;;
19032;SDS011;9649;51.042;13.804;2023-11-21T06:11:22;4.67;;;2.93;;
19032;SDS011;9649;51.042;13.804;2023-11-21T06:16:26;6.23;;;3.00;;
19032;SDS011;9649;51.042;13.804;2023-11-21T06:21:29;7.13;;;2.83;;
19032;SDS011;9649;51.042;13.804;2023-11-21T06:26:33;6.03;;;3.43;;
19032;SDS011;9649;51.042;13.804;2023-11-21T06:31:36;7.13;;;4.07;;
19032;SDS011;9649;51.042;13.804;2023-11-21T06:36:42;9.10;;;4.20;;
19032;SDS011;9649;51.042;13.804;2023-11-21T06:41:46;10.87;;;3.90;;
19032;SDS011;9649;51.042;13.804;2023-11-21T06:46:50;9.40;;;3.80;;
19032;SDS011;9649;51.042;13.804;2023-11-21T06:51:53;9.17;;;4.03;;
19032;SDS011;9649;51.042;13.804;2023-11-21T06:56:58;11.10;;;3.83;;
19032;SDS011;9649;51.042;13.804;2023-11-21T07:02:01;9.10;;;4.20;;
19032;SDS011;9649;51.042;13.804;2023-11-21T07:07:08;10.80;;;4.20;;
19032;SDS011;9649;51.042;13.804;2023-11-21T07:12:13;10.47;;;4.67;;
19032;SDS011;9649;51.042;13.804;2023-11-21T07:17:16;11.50;;;5.17;;
19032;SDS011;9649;51.042;13.804;2023-11-21T07:22:19;13.13;;;4.87;;
19032;SDS011;9649;51.042;13.804;2023-11-21T07:27:25;10.83;;;4.77;;
19032;SDS011;9649;51.042;13.804;2023-11-21T07:32:28;15.90;;;5.10;;
19032;SDS011;9649;51.042;13.804;2023-11-21T07:37:31;13.67;;;4.33;;
19032;SDS011;9649;51.042;13.804;2023-11-21T07:42:36;13.00;;;5.43;;
19032;SDS011;9649;51.042;13.804;2023-11-21T07:47:39;12.73;;;4.93;;
19032;SDS011;9649;51.042;13.804;2023-11-21T07:52:42;11.13;;;5.07;;
19032;SDS011;9649;51.042;13.804;2023-11-21T07:57:47;14.10;;;4.97;;
19032;SDS011;9649;51.042;13.804;2023-11-21T08:02:51;14.07;;;4.93;;
19032;SDS011;9649;51.042;13.804;2023-11-21T08:07:54;12.67;;;4.60;;
19032;SDS011;9649;51.042;13.804;2023-11-21T08:12:59;17.47;;;5.40;;
19032;SDS011;9649;51.042;13.804;2023-11-21T08:18:03;14.37;;;4.90;;
19032;SDS011;9649;51.042;13.804;2023-11-21T08:23:08;12.90;;;4.93;;
19032;SDS011;9649;51.042;13.804;2023-11-21T08:28:12;11.63;;;5.63;;
19032;SDS011;9649;51.042;13.804;2023-11-21T08:33:16;16.57;;;5.97;;
19032;SDS011;9649;51.042;13.804;2023-11-21T08:38:19;15.00;;;6.93;;
19032;SDS011;9649;51.042;13.804;2023-11-21T08:43:24;23.17;;;8.70;;
19032;SDS011;9649;51.042;13.804;2023-11-21T08:48:28;21.37;;;8.33;;
19032;SDS011;9649;51.042;13.804;2023-11-21T08:53:32;20.40;;;8.20;;
19032;SDS011;9649;51.042;13.804;2023-11-21T08:58:37;31.53;;;8.27;;
19032;SDS011;9649;51.042;13.804;2023-11-21T09:03:40;19.13;;;7.50;;
19032;SDS011;9649;51.042;13.804;2023-11-21T09:08:45;19.47;;;7.67;;
19032;SDS011;9649;51.042;13.804;2023-11-21T09:13:50;16.07;;;6.53;;
19032;SDS011;9649;51.042;13.804;2023-11-21T09:18:53;11.70;;;6.57;;
19032;SDS011;9649;51.042;13.804;2023-11-21T09:23:56;14.27;;;6.30;;
19032;SDS011;9649;51.042;13.804;2023-11-21T09:29:01;12.83;;;6.67;;
19032;SDS011;9649;51.042;13.804;2023-11-21T09:34:04;14.33;;;6.23;;
19032;SDS011;9649;51.042;13.804;2023-11-21T09:39:08;12.17;;;6.80;;
19032;SDS011;9649;51.042;13.804;2023-11-21T09:44:13;13.70;;;6.90;;
19032;SDS011;9649;51.042;13.804;2023-11-21T09:49:20;15.23;;;7.47;;
19032;SDS011;9649;51.042;13.804;2023-11-21T09:54:26;8.57;;;4.60;;
19032;SDS011;9649;51.042;13.804;2023-11-21T09:59:34;5.80;;;3.47;;
19032;SDS011;9649;51.042;13.804;2023-11-21T10:04:39;4.13;;;2.87;;
19032;SDS011;9649;51.042;13.804;2023-11-21T10:09:42;4.17;;;2.83;;
19032;SDS011;9649;51.042;13.804;2023-11-21T10:14:47;6.20;;;3.93;;
19032;SDS011;9649;51.042;13.804;2023-11-21T10:19:51;6.60;;;4.90;;
19032;SDS011;9649;51.042;13.804;2023-11-21T10:24:57;7.10;;;5.10;;
19032;SDS011;9649;51.042;13.804;2023-11-21T10:30:01;9.10;;;6.10;;
19032;SDS011;9649;51.042;13.804;2023-11-21T10:35:05;9.13;;;6.10;;
19032;SDS011;9649;51.042;13.804;2023-11-21T10:40:11;10.30;;;5.97;;
19032;SDS011;9649;51.042;13.804;2023-11-21T10:45:16;9.43;;;5.90;;
19032;SDS011;9649;51.042;13.804;2023-11-21T10:50:19;9.33;;;5.70;;
19032;SDS011;9649;51.042;13.804;2023-11-21T10:55:22;9.13;;;5.43;;
19032;SDS011;9649;51.042;13.804;2023-11-21T11:00:27;8.60;;;5.77;;
19032;SDS011;9649;51.042;13.804;2023-11-21T11:05:31;12.17;;;5.93;;
19032;SDS011;9649;51.042;13.804;2023-11-21T11:10:34;11.03;;;6.37;;
19032;SDS011;9649;51.042;13.804;2023-11-21T11:15:39;10.87;;;5.80;;
19032;SDS011;9649;51.042;13.804;2023-11-21T11:20:42;10.40;;;4.90;;
19032;SDS011;9649;51.042;13.804;2023-11-21T11:25:53;7.93;;;4.27;;
19032;SDS011;9649;51.042;13.804;2023-11-21T11:31:09;7.43;;;4.33;;
19032;SDS011;9649;51.042;13.804;2023-11-21T11:36:21;6.27;;;4.03;;
19032;SDS011;9649;51.042;13.804;2023-11-21T11:41:30;6.33;;;4.20;;
19032;SDS011;9649;51.042;13.804;2023-11-21T11:46:43;7.40;;;4.50;;
19032;SDS011;9649;51.042;13.804;2023-11-21T11:51:48;7.27;;;4.80;;
19032;SDS011;9649;51.042;13.804;2023-11-21T11:56:51;7.50;;;4.57;;
19032;SDS011;9649;51.042;13.804;2023-11-21T12:01:57;8.40;;;4.83;;
19032;SDS011;9649;51.042;13.804;2023-11-21T12:07:01;9.17;;;5.57;;
19032;SDS011;9649;51.042;13.804;2023-11-21T12:12:08;9.77;;;5.37;;
19032;SDS011;9649;51.042;13.804;2023-11-21T12:17:12;8.83;;;5.87;;
19032;SDS011;9649;51.042;13.804;2023-11-21T12:22:15;10.17;;;5.40;;
19032;SDS011;9649;51.042;13.804;2023-11-21T12:27:20;12.00;;;5.90;;
19032;SDS011;9649;51.042;13.804;2023-11-21T12:32:25;8.40;;;5.73;;
19032;SDS011;9649;51.042;13.804;2023-11-21T12:37:28;11.30;;;4.67;;
19032;SDS011;9649;51.042;13.804;2023-11-21T12:42:31;7.87;;;5.00;;
19032;SDS011;9649;51.042;13.804;2023-11-21T12:47:36;9.23;;;5.80;;
19032;SDS011;9649;51.042;13.804;2023-11-21T12:52:40;10.43;;;6.87;;
19032;SDS011;9649;51.042;13.804;2023-11-21T12:57:45;10.97;;;6.37;;
19032;SDS011;9649;51.042;13.804;2023-11-21T13:02:52;11.77;;;6.67;;
19032;SDS011;9649;51.042;13.804;2023-11-21T13:07:58;8.97;;;6.33;;
19032;SDS011;9649;51.042;13.804;2023-11-21T13:13:05;10.00;;;6.70;;
19032;SDS011;9649;51.042;13.804;2023-11-21T13:18:12;14.43;;;7.83;;
19032;SDS011;9649;51.042;13.804;2023-11-21T13:23:15;13.30;;;8.47;;
19032;SDS011;9649;51.042;13.804;2023-11-21T13:28:18;14.20;;;8.23;;
19032;SDS011;9649;51.042;13.804;2023-11-21T13:33:24;15.67;;;8.37;;
19032;SDS011;9649;51.042;13.804;2023-11-21T13:38:29;10.83;;;6.40;;
19032;SDS011;9649;51.042;13.804;2023-11-21T13:43:34;12.53;;;7.53;;
19032;SDS011;9649;51.042;13.804;2023-11-21T13:48:39;13.57;;;7.77;;
19032;SDS011;9649;51.042;13.804;2023-11-21T13:53:44;17.67;;;9.50;;
19032;SDS011;9649;51.042;13.804;2023-11-21T13:58:49;23.37;;;11.40;;
19032;SDS011;9649;51.042;13.804;2023-11-21T14:03:54;17.87;;;9.20;;
19032;SDS011;9649;51.042;13.804;2023-11-21T14:09:04;20.43;;;8.80;;
19032;SDS011;9649;51.042;13.804;2023-11-21T14:14:08;17.67;;;8.30;;
19032;SDS011;9649;51.042;13.804;2023-11-21T14:19:13;15.03;;;7.97;;
19032;SDS011;9649;51.042;13.804;2023-11-21T14:24:18;17.23;;;7.43;;
19032;SDS011;9649;51.042;13.804;2023-11-21T14:29:21;16.73;;;8.67;;
19032;SDS011;9649;51.042;13.804;2023-11-21T14:34:26;18.50;;;8.50;;
19032;SDS011;9649;51.042;13.804;2023-11-21T14:39:29;17.53;;;8.43;;
19032;SDS011;9649;51.042;13.804;2023-11-21T14:44:36;14.90;;;7.40;;
19032;SDS011;9649;51.042;13.804;2023-11-21T14:49:44;12.97;;;6.90;;
19032;SDS011;9649;51.042;13.804;2023-11-21T14:54:54;14.07;;;7.77;;
19032;SDS011;9649;51.042;13.804;2023-11-21T15:00:17;10.90;;;6.73;;
19032;SDS011;9649;51.042;13.804;2023-11-21T15:05:40;11.67;;;6.20;;
19032;SDS011;9649;51.042;13.804;2023-11-21T15:10:43;8.73;;;4.97;;
19032;SDS011;9649;51.042;13.804;2023-11-21T15:15:50;10.20;;;4.87;;
19032;SDS011;9649;51.042;13.804;2023-11-21T15:20:56;9.27;;;4.80;;
19032;SDS011;9649;51.042;13.804;2023-11-21T15:25:59;8.33;;;4.30;;
19032;SDS011;9649;51.042;13.804;2023-11-21T15:31:06;6.97;;;4.33;;
19032;SDS011;9649;51.042;13.804;2023-11-21T15:36:12;7.43;;;4.33;;
19032;SDS011;9649;51.042;13.804;2023-11-21T15:41:19;7.17;;;4.70;;
19032;SDS011;9649;51.042;13.804;2023-11-21T15:46:23;7.57;;;4.77;;
19032;SDS011;9649;51.042;13.804;2023-11-21T15:51:29;6.60;;;4.60;;
19032;SDS011;9649;51.042;13.804;2023-11-21T15:56:39;9.30;;;4.80;;
19032;SDS011;9649;51.042;13.804;2023-11-21T16:01:44;7.83;;;4.93;;
19032;SDS011;9649;51.042;13.804;2023-11-21T16:06:49;8.03;;;5.27;;
19032;SDS011;9649;51.042;13.804;2023-11-21T16:11:57;9.23;;;4.67;;
19032;SDS011;9649;51.042;13.804;2023-11-21T16:17:04;9.07;;;4.80;;
19032;SDS011;9649;51.042;13.804;2023-11-21T16:22:12;7.90;;;4.87;;
19032;SDS011;9649;51.042;13.804;2023-11-21T16:27:17;9.33;;;4.73;;
19032;SDS011;9649;51.042;13.804;2023-11-21T16:32:21;7.00;;;4.97;;
19032;SDS011;9649;51.042;13.804;2023-11-21T16:37:28;6.43;;;4.60;;
19032;SDS011;9649;51.042;13.804;2023-11-21T16:42:33;5.10;;;4.00;;
19032;SDS011;9649;51.042;13.804;2023-11-21T16:47:41;5.10;;;3.93;;
19032;SDS011;9649;51.042;13.804;2023-11-21T16:53:22;5.30;;;2.70;;
19032;SDS011;9649;51.042;13.804;2023-11-21T16:59:04;4.60;;;3.27;;
19032;SDS011;9649;51.042;13.804;2023-11-21T17:04:20;1.77;;;1.30;;
19032;SDS011;9649;51.042;13.804;2023-11-21T17:09:28;2.43;;;1.53;;
19032;SDS011;9649;51.042;13.804;2023-11-21T17:14:37;3.67;;;1.73;;
19032;SDS011;9649;51.042;13.804;2023-11-21T17:19:57;2.13;;;1.73;;
19032;SDS011;9649;51.042;13.804;2023-11-21T17:25:16;2.17;;;1.70;;
19032;SDS011;9649;51.042;13.804;2023-11-21T17:30:55;2.30;;;1.60;;
19032;SDS011;9649;51.042;13.804;2023-11-21T17:37:31;4.43;;;2.20;;
19032;SDS011;9649;51.042;13.804;2023-11-21T17:49:19;3.23;;;2.37;;
19032;SDS011;9649;51.042;13.804;2023-11-21T17:54:27;3.80;;;2.10;;
19032;SDS011;9649;51.042;13.804;2023-11-21T17:59:57;2.60;;;2.27;;
19032;SDS011;9649;51.042;13.804;2023-11-21T18:05:17;2.23;;;2.03;;
19032;SDS011;9649;51.042;13.804;2023-11-21T18:10:35;2.20;;;2.00;;
19032;SDS011;9649;51.042;13.804;2023-11-21T18:15:54;1.87;;;1.67;;
19032;SDS011;9649;51.042;13.804;2023-11-21T18:21:07;3.30;;;1.97;;
19032;SDS011;9649;51.042;13.804;2023-11-21T18:26:26;1.90;;;1.60;;
19032;SDS011;9649;51.042;13.804;2023-11-21T18:31:52;4.77;;;2.23;;
19032;SDS011;9649;51.042;13.804;2023-11-21T18:37:11;3.37;;;1.90;;
19032;SDS011;9649;51.042;13.804;2023-11-21T18:42:45;2.47;;;2.20;;
19032;SDS011;9649;51.042;13.804;2023-11-21T18:48:07;5.37;;;2.30;;
19032;SDS011;9649;51.042;13.804;2023-11-21T18:53:36;3.00;;;2.27;;
19032;SDS011;9649;51.042;13.804;2023-11-21T18:58:51;3.47;;;2.20;;
19032;SDS011;9649;51.042;13.804;2023-11-21T19:04:14;4.07;;;2.20;;
19032;SDS011;9649;51.042;13.804;2023-11-21T19:09:26;2.30;;;1.90;;
19032;SDS011;9649;51.042;13.804;2023-11-21T19:19:58;2.17;;;1.90;;
19032;SDS011;9649;51.042;13.804;2023-11-21T19:25:01;2.57;;;1.83;;
19032;SDS011;9649;51.042;13.804;2023-11-21T19:30:06;2.40;;;1.80;;
19032;SDS011;9649;51.042;13.804;2023-11-21T19:35:16;2.17;;;1.80;;
19032;SDS011;9649;51.042;13.804;2023-11-21T19:40:22;8.93;;;3.80;;
19032;SDS011;9649;51.042;13.804;2023-11-21T19:45:25;3.13;;;2.13;;
19032;SDS011;9649;51.042;13.804;2023-11-21T19:50:30;2.20;;;1.60;;
19032;SDS011;9649;51.042;13.804;2023-11-21T19:55:35;4.77;;;2.50;;
19032;SDS011;9649;51.042;13.804;2023-11-21T20:00:41;2.97;;;2.07;;
19032;SDS011;9649;51.042;13.804;2023-11-21T20:05:47;2.77;;;2.10;;
19032;SDS011;9649;51.042;13.804;2023-11-21T20:10:50;4.50;;;2.37;;
19032;SDS011;9649;51.042;13.804;2023-11-21T20:15:57;3.20;;;1.90;;
19032;SDS011;9649;51.042;13.804;2023-11-21T20:21:02;3.60;;;2.10;;
19032;SDS011;9649;51.042;13.804;2023-11-21T20:26:05;2.90;;;1.90;;
19032;SDS011;9649;51.042;13.804;2023-11-21T20:31:08;2.67;;;2.10;;
19032;SDS011;9649;51.042;13.804;2023-11-21T20:36:14;3.27;;;2.23;;
19032;SDS011;9649;51.042;13.804;2023-11-21T20:41:17;2.37;;;2.13;;
19032;SDS011;9649;51.042;13.804;2023-11-21T20:46:21;3.90;;;2.50;;
19032;SDS011;9649;51.042;13.804;2023-11-21T20:51:28;4.40;;;2.37;;
19032;SDS011;9649;51.042;13.804;2023-11-21T20:56:30;3.27;;;2.57;;
19032;SDS011;9649;51.042;13.804;2023-11-21T21:01:34;4.23;;;2.87;;
19032;SDS011;9649;51.042;13.804;2023-11-21T21:06:38;4.87;;;2.30;;
19032;SDS011;9649;51.042;13.804;2023-11-21T21:11:41;3.37;;;2.70;;
19032;SDS011;9649;51.042;13.804;2023-11-21T21:16:44;4.27;;;3.20;;
19032;SDS011;9649;51.042;13.804;2023-11-21T21:21:48;4.77;;;3.30;;
19032;SDS011;9649;51.042;13.804;2023-11-21T21:26:53;4.30;;;3.30;;
19032;SDS011;9649;51.042;13.804;2023-11-21T21:31:56;5.20;;;3.70;;
19032;SDS011;9649;51.042;13.804;2023-11-21T21:37:00;4.80;;;3.80;;
19032;SDS011;9649;51.042;13.804;2023-11-21T21:42:03;5.67;;;3.93;;
19032;SDS011;9649;51.042;13.804;2023-11-21T21:47:07;7.03;;;4.33;;
19032;SDS011;9649;51.042;13.804;2023-11-21T21:52:12;5.67;;;4.27;;
19032;SDS011;9649;51.042;13.804;2023-11-21T21:57:15;6.70;;;4.57;;
19032;SDS011;9649;51.042;13.804;2023-11-21T22:02:18;7.53;;;5.07;;
19032;SDS011;9649;51.042;13.804;2023-11-21T22:07:23;7.23;;;4.90;;
19032;SDS011;9649;51.042;13.804;2023-11-21T22:12:25;7.83;;;5.03;;
19032;SDS011;9649;51.042;13.804;2023-11-21T22:17:28;6.70;;;4.67;;
19032;SDS011;9649;51.042;13.804;2023-11-21T22:22:33;10.57;;;6.40;;
19032;SDS011;9649;51.042;13.804;2023-11-21T22:27:36;9.13;;;5.67;;
19032;SDS011;9649;51.042;13.804;2023-11-21T22:32:39;8.70;;;5.80;;
19032;SDS011;9649;51.042;13.804;2023-11-21T22:37:43;9.40;;;5.70;;
19032;SDS011;9649;51.042;13.804;2023-11-21T22:42:46;7.87;;;5.93;;
19032;SDS011;9649;51.042;13.804;2023-11-21T22:47:49;7.83;;;5.50;;
19032;SDS011;9649;51.042;13.804;2023-11-21T22:52:54;9.17;;;6.20;;
19032;SDS011;9649;51.042;13.804;2023-11-21T22:57:57;9.57;;;6.20;;
19032;SDS011;9649;51.042;13.804;2023-11-21T23:02:59;9.07;;;6.17;;
19032;SDS011;9649;51.042;13.804;2023-11-21T23:08:04;9.83;;;6.33;;
19032;SDS011;9649;51.042;13.804;2023-11-21T23:13:10;11.57;;;6.17;;
19032;SDS011;9649;51.042;13.804;2023-11-21T23:18:14;9.40;;;6.30;;
19032;SDS011;9649;51.042;13.804;2023-11-21T23:23:18;11.60;;;6.33;;
19032;SDS011;9649;51.042;13.804;2023-11-21T23:28:24;10.23;;;6.80;;
19032;SDS011;9649;51.042;13.804;2023-11-21T23:33:27;8.43;;;6.23;;
19032;SDS011;9649;51.042;13.804;2023-11-21T23:38:33;11.77;;;6.10;;
19032;SDS011;9649;51.042;13.804;2023-11-21T23:43:36;11.60;;;7.17;;
19032;SDS011;9649;51.042;13.804;2023-11-21T23:48:39;10.13;;;7.17;;
19032;SDS011;9649;51.042;13.804;2023-11-21T23:53:43;12.93;;;8.10;;
19032;SDS011;9649;51.042;13.804;2023-11-21T23:58:46;11.90;;;7.67;;
